Latest Weather Observations for Pound Creek

IDV60801

Issued at 12:32 pm EST Monday 15 July 2024 (issued every 10 minutes, with the page automatically refreshed every 10 minutes)

About weather observations | Map of weather stations | Latest weather observations for VIC | Other Formats
Station Details ID: 085099 Name: POUND CREEK Lat: -38.63 Lon: 145.81 Height: 3.0 m
Data from the previous 72 hours. | See also: Recent months at Pound Creek
Date/Time
EST
Temp
°C
App
Temp
°C
Dew
Point
°C
Rel
Hum
%
Delta-T
°C
Wind Press
QNH
hPa
Press
MSL
hPa
Rain since
9am
mm
Dir  Spd
km/h
Gust
km/h
Spd
kts
Gust
kts
15/12:30pm 10.2 4.3 9.1 93 0.5 W 30 44 16 24 1001.1 1001.1 4.6
15/12:00pm 10.1 3.2 8.9 92 0.6 W 35 50 19 27 1001.8 1001.8 3.0
15/11:30am 10.3 4.4 8.9 91 0.7 WSW 30 43 16 23 1002.6 1002.6 2.0
15/11:00am 10.4 4.2 9.2 92 0.6 W 32 48 17 26 1003.0 1003.0 1.8
15/10:30am 10.2 3.3 8.8 91 0.7 WSW 35 61 19 33 1003.4 1003.4 1.4
15/10:27am 10.2 3.7 8.8 91 0.7 WSW 33 61 18 33 1003.4 1003.4 1.2
15/10:00am 10.0 3.0 8.6 91 0.7 WSW 35 52 19 28 1003.6 1003.6 0.4
15/09:30am 9.9 3.2 8.2 89 0.8 WSW 33 50 18 27 1003.9 1003.9 0.2
15/09:00am 9.7 3.0 8.0 89 0.8 WSW 33 50 18 27 1004.0 1004.0 4.2
15/08:30am 9.4 2.6 7.8 90 0.8 WSW 33 59 18 32 1004.2 1004.2 3.8
15/08:13am 9.6 3.3 7.5 87 1.0 W 30 52 16 28 1004.4 1004.4 3.4
15/08:00am 9.1 2.1 6.9 86 1.0 W 33 46 18 25 1004.3 1004.3 3.4
15/07:46am 9.5 2.8 7.4 87 1.0 WSW 32 50 17 27 1004.5 1004.5 3.4
15/07:30am 9.2 2.6 7.6 90 0.8 WSW 32 43 17 23 1004.8 1004.8 3.2
15/07:00am 9.2 3.2 7.2 87 0.9 WSW 28 39 15 21 1005.0 1005.0 2.4
15/06:33am 9.1 2.3 7.1 87 0.9 WSW 32 50 17 27 1005.2 1005.2 1.8
15/06:30am 9.2 1.8 6.8 85 1.1 WSW 35 50 19 27 1005.2 1005.2 1.6
15/06:02am 8.9 1.2 6.9 87 0.9 SW 37 57 20 31 1005.4 1005.4 1.2
15/06:00am 8.9 0.7 6.5 85 1.1 SW 39 57 21 31 1005.4 1005.4 1.0
15/05:30am 10.6 3.0 4.1 64 2.9 WSW 33 50 18 27 1005.2 1005.2 0.4
15/05:00am 10.4 2.9 3.7 63 3.0 WSW 32 50 17 27 1005.5 1005.5 0.4
15/04:58am 10.1 3.3 5.3 72 2.2 WSW 30 50 16 27 1005.5 1005.5 0.4
15/04:30am 10.1 3.6 4.7 69 2.4 WSW 28 39 15 21 1005.8 1005.8 0.4
15/04:00am 10.1 2.6 3.4 63 2.9 WSW 32 44 17 24 1006.2 1006.2 0.4
15/03:30am 10.3 2.6 3.6 63 2.9 SW 33 46 18 25 1006.7 1006.7 0.4
15/03:00am 10.2 1.9 4.1 66 2.7 SW 37 50 20 27 1007.1 1007.1 0.4
15/02:31am 9.9 2.8 5.3 73 2.1 SW 32 50 17 27 1007.3 1007.3 0.4
15/02:30am 9.9 2.8 5.7 75 1.9 SW 32 48 17 26 1007.4 1007.4 0.4
15/02:00am 9.9 3.2 5.5 74 2.0 WSW 30 46 16 25 1007.7 1007.7 0.4
15/01:30am 9.9 3.1 4.9 71 2.2 SW 30 43 16 23 1007.8 1007.8 0.4
15/01:00am 9.7 2.3 5.1 73 2.1 SW 33 46 18 25 1008.0 1008.0 0.2
15/12:30am 10.4 2.5 4.3 66 2.7 SW 35 50 19 27 1008.4 1008.4 0.2
15/12:00am 10.3 2.7 4.0 65 2.8 WSW 33 44 18 24 1008.7 1008.7 0.2
 
Date/Time
EST
Temp
°C
App
Temp
°C
Dew
Point
°C
Rel
Hum
%
Delta-T
°C
Wind Press
QNH
hPa
Press
MSL
hPa
Rain since
9am
mm
Dir  Spd
km/h
Gust
km/h
Spd
kts
Gust
kts
14/11:30pm 10.2 2.7 4.6 68 2.5 SW 33 43 18 23 1009.1 1009.1 0.2
14/11:15pm 10.1 3.8 5.5 73 2.1 WSW 28 46 15 25 1009.3 1009.3 0.2
14/11:00pm 10.1 3.5 6.1 76 1.9 WSW 30 41 16 22 1009.4 1009.4 0.2
14/10:30pm 10.1 2.1 3.6 64 2.8 SW 35 46 19 25 1009.8 1009.8 0.2
14/10:00pm 9.9 2.8 5.5 74 2.0 SW 32 44 17 24 1010.1 1010.1 0.2
14/09:30pm 10.3 3.4 4.5 67 2.6 SW 30 44 16 24 1010.3 1010.3 0.2
14/09:00pm 10.3 3.0 4.5 67 2.6 SW 32 46 17 25 1010.5 1010.5 0.2
14/08:30pm 10.4 3.0 3.9 64 2.9 SW 32 43 17 23 1010.8 1010.8 0.2
14/08:00pm 10.2 2.7 3.7 64 2.9 SW 32 43 17 23 1011.1 1011.1 0.2
14/07:30pm 10.2 2.8 4.1 66 2.7 SW 32 43 17 23 1011.2 1011.2 0.2
14/07:00pm 10.1 2.6 3.4 63 2.9 SW 32 43 17 23 1011.4 1011.4 0.2
14/06:30pm 10.2 3.6 4.1 66 2.7 SW 28 39 15 21 1011.3 1011.3 0.2
14/06:00pm 10.3 3.2 3.3 62 3.0 SW 30 39 16 21 1011.4 1011.4 0.2
14/05:30pm 10.1 2.3 2.9 61 3.1 SW 33 43 18 23 1011.5 1011.5 0.2
14/05:00pm 9.7 2.5 3.0 63 2.9 SW 30 41 16 22 1011.6 1011.6 0.2
14/04:30pm 10.3 3.2 3.3 62 3.0 SW 30 43 16 23 1011.6 1011.6 0.2
14/04:00pm 10.1 2.3 2.9 61 3.1 SW 33 41 18 22 1011.8 1011.8 0.2
14/03:30pm 10.4 2.9 3.4 62 3.1 SW 32 43 17 23 1011.9 1011.9 0.2
14/03:00pm 10.4 2.9 3.4 62 3.1 SW 32 44 17 24 1011.9 1011.9 0.2
14/02:30pm 11.4 3.9 4.4 62 3.2 SW 33 43 18 23 1011.8 1011.8 0.2
14/02:00pm 10.6 3.7 4.5 66 2.7 SW 30 39 16 21 1011.8 1011.8 0.2
14/01:30pm 11.2 5.1 6.7 74 2.1 SW 28 37 15 20 1011.9 1011.9 0.2
14/01:00pm 12.1 5.4 5.5 64 3.1 SW 30 39 16 21 1012.1 1012.1 0.0
14/12:30pm 11.5 5.2 5.6 67 2.7 SW 28 35 15 19 1012.6 1012.6 0.0
14/12:00pm 10.3 3.8 4.7 68 2.5 SW 28 39 15 21 1013.0 1013.0 0.0
14/11:30am 10.9 4.8 5.0 67 2.7 SSW 26 35 14 19 1013.5 1013.5 0.0
14/11:00am 11.0 5.4 5.5 69 2.5 SSW 24 33 13 18 1013.9 1013.9 0.0
14/10:30am 9.6 3.7 6.0 78 1.7 SW 26 41 14 22 1014.2 1014.2 0.0
14/10:00am 9.5 3.8 4.9 73 2.1 SW 24 35 13 19 1014.3 1014.3 0.0
14/09:30am 9.7 4.3 4.7 71 2.2 SW 22 37 12 20 1014.4 1014.4 0.0
14/09:00am 9.5 4.2 4.9 73 2.1 SW 22 32 12 17 1014.4 1014.4 3.8
14/08:30am 9.3 4.3 4.5 72 2.1 SSW 20 30 11 16 1014.4 1014.4 3.8
14/08:00am 8.8 4.0 5.5 80 1.5 SW 20 26 11 14 1014.4 1014.4 3.8
14/07:30am 8.4 3.1 4.8 78 1.6 SW 22 35 12 19 1014.5 1014.5 3.6
14/07:00am 8.8 4.8 4.8 76 1.8 SW 15 32 8 17 1014.3 1014.3 3.6
14/06:30am 8.9 4.3 5.5 79 1.5 SSW 19 33 10 18 1014.3 1014.3 3.4
14/06:00am 8.3 5.3 6.1 86 1.0 SSW 11 15 6 8 1014.2 1014.2 3.4
14/05:44am 7.5 2.1 4.3 80 1.4 SSW 22 46 12 25 1014.3 1014.3 3.0
14/05:30am 8.5 3.8 6.0 84 1.1 SSW 20 32 11 17 1014.0 1014.0 1.8
14/05:00am 8.7 3.4 4.9 77 1.7 SW 22 30 12 16 1014.0 1014.0 1.8
14/04:30am 8.8 4.9 5.5 80 1.5 SW 15 30 8 16 1014.0 1014.0 1.8
14/04:00am 9.1 4.8 5.3 77 1.7 SW 17 30 9 16 1014.1 1014.1 1.8
14/03:30am 9.1 4.3 5.5 78 1.6 SSW 20 28 11 15 1014.3 1014.3 1.8
14/03:00am 9.3 4.1 5.3 76 1.8 SW 22 30 12 16 1014.4 1014.4 1.8
14/02:30am 8.7 4.9 6.0 83 1.2 WSW 15 24 8 13 1014.6 1014.6 1.8
14/02:00am 9.2 4.9 5.4 77 1.7 WSW 17 24 9 13 1014.7 1014.7 1.0
14/01:30am 9.2 5.2 6.6 84 1.2 SW 17 26 9 14 1014.9 1014.9 1.0
14/01:00am 7.5 5.2 5.5 87 0.9 NW 7 11 4 6 1014.8 1014.8 1.0
14/12:30am 8.4 5.3 5.7 83 1.2 WSW 11 19 6 10 1014.9 1014.9 1.0
14/12:00am 8.8 5.3 5.5 80 1.5 WSW 13 19 7 10 1015.0 1015.0 1.0
 
Date/Time
EST
Temp
°C
App
Temp
°C
Dew
Point
°C
Rel
Hum
%
Delta-T
°C
Wind Press
QNH
hPa
Press
MSL
hPa
Rain since
9am
mm
Dir  Spd
km/h
Gust
km/h
Spd
kts
Gust
kts
13/11:30pm 8.7 5.7 6.2 84 1.1 SW 11 17 6 9 1015.4 1015.4 1.0
13/11:00pm 8.6 5.2 5.7 82 1.3 SW 13 17 7 9 1015.7 1015.7 1.0
13/10:30pm 8.7 4.6 6.0 83 1.2 SW 17 20 9 11 1015.8 1015.8 1.0
13/10:00pm 8.3 6.2 6.6 89 0.8 SW 7 9 4 5 1016.0 1016.0 1.0
13/09:30pm 8.9 5.2 6.5 85 1.1 SW 15 20 8 11 1016.1 1016.1 1.0
13/09:00pm 8.3 5.8 6.6 89 0.8 WNW 9 11 5 6 1016.1 1016.1 1.0
13/08:30pm 8.8 4.9 7.1 89 0.8 WSW 17 30 9 16 1016.1 1016.1 1.0
13/08:00pm 9.1 5.8 6.5 84 1.2 WSW 13 17 7 9 1016.1 1016.1 0.8
13/07:30pm 8.8 5.8 7.6 92 0.6 W 13 26 7 14 1016.2 1016.2 0.6
13/07:00pm 8.0 5.9 5.8 86 1.0 SW 6 9 3 5 1016.2 1016.2 0.6
13/06:30pm 8.8 6.7 6.6 86 1.0 SSW 7 9 4 5 1016.0 1016.0 0.6
13/06:00pm 9.3 6.3 6.2 81 1.4 SSW 11 15 6 8 1015.9 1015.9 0.6
13/05:30pm 9.5 6.2 6.6 82 1.4 SW 13 17 7 9 1015.7 1015.7 0.6
13/05:00pm 10.4 5.5 6.9 79 1.7 SW 22 28 12 15 1015.7 1015.7 0.6
13/04:30pm 11.2 7.3 7.3 77 1.9 SW 17 24 9 13 1015.5 1015.5 0.6
13/04:00pm 10.8 6.7 6.4 74 2.1 SW 17 28 9 15 1015.6 1015.6 0.6
13/03:30pm 10.9 7.6 8.1 83 1.4 WSW 15 24 8 13 1015.5 1015.5 0.6
13/03:00pm 11.2 7.9 8.2 82 1.5 SSW 15 22 8 12 1015.5 1015.5 0.6
13/02:30pm 12.1 8.0 8.0 76 2.0 SW 19 22 10 12 1015.1 1015.1 0.6
13/02:00pm 11.8 7.5 7.9 77 1.9 WSW 20 28 11 15 1015.1 1015.1 0.6
13/01:30pm 11.0 6.9 8.8 86 1.1 WSW 20 28 11 15 1015.1 1015.1 0.6
13/01:00pm 11.0 6.9 8.6 85 1.2 SW 20 26 11 14 1015.4 1015.4 0.6
13/12:30pm 10.9 7.1 9.2 89 0.8 W 19 28 10 15 1015.6 1015.6 0.6
13/12:00pm 11.7 7.9 8.9 83 1.4 SW 19 30 10 16 1015.8 1015.8 0.4
13/11:30am 12.6 9.7 9.8 83 1.4 WSW 15 24 8 13 1016.0 1016.0 0.4
13/11:00am 11.7 10.4 10.1 90 0.8 W 7 11 4 6 1016.3 1016.3 0.4
13/10:30am 11.2 9.5 9.8 91 0.7 WNW 9 13 5 7 1016.6 1016.6 0.2
13/10:00am 10.4 8.6 9.5 94 0.4 WNW 9 17 5 9 1016.6 1016.6 0.2
13/09:30am 10.4 9.0 9.5 94 0.4 NW 7 13 4 7 1016.3 1016.3 0.0
13/09:00am 10.1 8.6 9.2 94 0.4 WNW 7 11 4 6 1016.2 1016.2 1.8
13/08:30am 9.5 8.1 8.9 96 0.3 NW 6 9 3 5 1016.0 1016.0 1.8
13/08:00am 8.8 7.1 8.4 97 0.2 N 7 9 4 5 1015.8 1015.8 1.8
13/07:30am 8.8 7.1 8.2 96 0.3 NNW 7 13 4 7 1015.8 1015.8 1.2
13/07:00am 9.0 7.3 8.4 96 0.3 NW 7 13 4 7 1015.7 1015.7 1.2
13/06:30am 8.7 6.9 8.1 96 0.3 NW 7 15 4 8 1015.7 1015.7 0.6
13/06:00am 7.3 5.8 6.6 95 0.3 NNW 4 9 2 5 1015.3 1015.3 0.0
13/05:30am 7.0 4.8 6.3 95 0.3 NNW 7 9 4 5 1015.1 1015.1 0.0
13/05:00am 6.9 4.8 6.0 94 0.4 N 6 7 3 4 1015.0 1015.0 0.0
13/04:30am 7.3 5.3 6.2 93 0.5 NNW 6 9 3 5 1014.9 1014.9 0.0
13/04:00am 7.2 5.0 6.1 93 0.5 NNW 7 9 4 5 1014.8 1014.8 0.0
13/03:30am 7.4 5.2 6.2 92 0.5 N 7 11 4 6 1014.7 1014.7 0.0
13/03:00am 8.4 6.4 7.0 91 0.7 NNW 7 11 4 6 1014.9 1014.9 0.0
13/02:30am 8.8 6.9 6.9 88 0.9 NW 6 9 3 5 1014.9 1014.9 0.0
13/02:00am 9.9 7.7 7.7 86 1.1 WNW 9 17 5 9 1014.7 1014.7 0.0
13/01:30am 9.8 7.9 7.4 85 1.1 NW 7 15 4 8 1014.6 1014.6 0.0
13/01:00am 8.3 6.3 6.3 87 0.9 NW 6 9 3 5 1014.7 1014.7 0.0
13/12:30am 8.4 6.4 6.4 87 0.9 NNW 6 9 3 5 1014.7 1014.7 0.0
13/12:00am 9.1 7.0 6.7 85 1.1 NNW 7 9 4 5 1014.8 1014.8 0.0
 
Date/Time
EST
Temp
°C
App
Temp
°C
Dew
Point
°C
Rel
Hum
%
Delta-T
°C
Wind Press
QNH
hPa
Press
MSL
hPa
Rain since
9am
mm
Dir  Spd
km/h
Gust
km/h
Spd
kts
Gust
kts
12/11:30pm 9.6 7.6 7.2 85 1.1 NNW 7 11 4 6 1014.9 1014.9 0.0
12/11:00pm 9.9 8.0 7.5 85 1.1 NNW 7 13 4 7 1014.8 1014.8 0.0
12/10:30pm 9.6 7.7 7.4 86 1.0 N 7 11 4 6 1014.8 1014.8 0.0
12/10:00pm 8.3 6.1 6.4 88 0.9 N 7 9 4 5 1014.8 1014.8 0.0
12/09:30pm 6.7 4.5 5.2 90 0.7 N 6 9 3 5 1014.9 1014.9 0.0
12/09:00pm 6.4 3.9 4.6 88 0.8 N 7 11 4 6 1014.9 1014.9 0.0
12/08:30pm 5.6 2.6 3.9 89 0.7 N 9 11 5 6 1014.8 1014.8 0.0
12/08:00pm 5.6 3.0 4.1 90 0.6 N 7 9 4 5 1014.6 1014.6 0.0
12/07:30pm 5.9 3.3 4.2 89 0.7 N 7 9 4 5 1014.6 1014.6 0.0
12/07:00pm 6.2 3.8 5.2 93 0.4 N 7 9 4 5 1014.7 1014.7 0.0
12/06:30pm 6.5 4.0 4.8 89 0.7 N 7 9 4 5 1014.5 1014.5 0.0
12/06:00pm 7.5 5.5 6.1 91 0.6 N 6 6 3 3 1014.3 1014.3 0.0
12/05:30pm 8.9 7.0 6.5 85 1.1 NNW 6 7 3 4 1014.0 1014.0 0.0
12/05:00pm 10.3 9.2 7.0 80 1.6 WNW 2 6 1 3 1013.8 1013.8 0.0
12/04:30pm 11.9 10.1 7.0 72 2.3 WNW 6 7 3 4 1013.9 1013.9 0.0
12/04:00pm 12.9 10.6 7.6 70 2.6 WNW 9 17 5 9 1014.0 1014.0 0.0
12/03:30pm 13.8 12.0 7.8 67 3.0 WNW 7 13 4 7 1013.9 1013.9 0.0
12/03:00pm 13.8 11.6 7.8 67 3.0 WNW 9 17 5 9 1013.6 1013.6 0.0
12/02:30pm 13.5 11.8 8.4 71 2.5 WNW 7 15 4 8 1013.7 1013.7 0.0
12/02:00pm 12.7 11.1 8.8 77 2.0 WNW 7 13 4 7 1013.6 1013.6 0.0
12/01:30pm 13.9 11.6 9.1 73 2.4 NW 11 17 6 9 1013.5 1013.5 0.0
12/01:00pm 13.5 11.4 9.6 77 2.0 NNW 11 17 6 9 1013.6 1013.6 0.0

Other formats

Comma delimited format used in spreadsheet applications
http://www.bom.gov.au/fwo/IDV60801/IDV60801.94886.axf

JavaScript Object Notation format (JSON) in row-major order
http://www.bom.gov.au/fwo/IDV60801/IDV60801.94886.json

Data quality

Most of these data are generated automatically and are frequently updated. Quality checks on data are not normally performed. It is possible for incorrect values to appear. Refer to information at About Latest Weather Observations and please check the disclaimer before using these data.